createdAt,value
2019-03-22T21:22:46.257Z,8.45
2019-03-22T21:22:52.313Z,8.45
2019-03-22T21:22:58.238Z,8.45
2019-03-22T21:23:04.243Z,8.45
2019-03-22T21:23:10.321Z,8.45
2019-03-22T21:23:16.248Z,8.45
2019-03-22T21:23:22.225Z,8.45
2019-03-22T21:23:35.937Z,8.45
2019-03-22T21:23:40.316Z,8.45
2019-03-22T21:23:46.243Z,8.45
2019-03-22T21:23:52.245Z,8.45
2019-03-22T21:23:58.319Z,8.45
2019-03-22T21:24:04.249Z,8.45
2019-03-22T21:24:10.245Z,8.45
2019-03-22T21:24:16.574Z,8.45
2019-03-22T21:24:22.256Z,8.45
2019-03-22T21:24:28.243Z,8.45
2019-03-22T21:24:34.244Z,8.45
2019-03-22T21:24:40.259Z,8.45
2019-03-22T21:24:46.233Z,8.45
2019-03-22T21:24:53.245Z,8.45
2019-03-22T21:25:00.357Z,8.45
2019-03-22T21:25:07.248Z,8.45
2019-03-22T21:25:14.244Z,8.45
2019-03-22T21:25:21.249Z,8.45
2019-03-22T21:25:28.255Z,8.45
2019-03-22T21:25:35.248Z,8.45
2019-03-22T21:25:42.247Z,8.45
2019-03-22T21:25:49.235Z,8.45
2019-03-22T21:25:56.265Z,8.45
2019-03-22T21:26:03.243Z,8.45
2019-03-22T21:26:10.246Z,8.45
2019-03-22T21:26:17.261Z,8.45
2019-03-22T21:26:24.241Z,8.45
2019-03-22T21:26:31.249Z,8.45
2019-03-22T21:26:38.265Z,8.45
2019-03-22T21:26:45.242Z,8.45
2019-03-22T21:26:52.246Z,8.45
2019-03-22T21:26:59.240Z,8.45
2019-03-22T21:27:15.206Z,8.45
2019-03-22T21:27:19.239Z,8.45
2019-03-22T21:27:25.239Z,8.45
2019-03-22T21:27:31.257Z,8.45
2019-03-22T21:27:37.235Z,8.45
2019-03-22T21:27:43.241Z,8.45
2019-03-22T21:27:49.257Z,8.45
2019-03-22T21:27:55.243Z,8.45
2019-03-22T21:28:01.252Z,8.45
2019-03-22T21:28:08.257Z,8.45
2019-03-22T21:28:14.238Z,8.45
2019-03-22T21:28:20.245Z,8.45
2019-03-22T21:28:26.269Z,8.45
2019-03-22T21:28:32.251Z,8.45
2019-03-22T21:28:38.235Z,8.45
2019-03-22T21:28:44.236Z,8.45
2019-03-22T21:28:50.238Z,8.45
2019-03-22T21:28:56.256Z,8.45
2019-03-22T21:29:02.240Z,8.45
2019-03-22T21:29:08.238Z,8.45
2019-03-22T21:29:14.252Z,8.45
2019-03-22T21:29:20.275Z,8.45
2019-03-22T21:29:26.231Z,8.45
2019-03-22T21:29:32.240Z,8.45
2019-03-22T21:29:44.006Z,8.45
2019-03-22T21:29:50.239Z,8.45
2019-03-22T21:29:56.244Z,8.45
2019-03-22T21:30:02.252Z,8.45
2019-03-22T21:30:08.252Z,8.45
2019-03-22T21:30:14.248Z,8.45
2019-03-22T21:30:22.430Z,8.45
2019-03-22T21:30:29.255Z,8.45
2019-03-22T21:30:36.233Z,8.45
2019-03-22T21:30:43.239Z,8.45
2019-03-22T21:30:50.251Z,8.45
2019-03-22T21:30:57.255Z,8.45
2019-03-22T21:31:04.255Z,8.45
2019-03-22T21:31:33.261Z,8.4532
2019-03-22T21:31:40.239Z,8.4532
2019-03-22T21:31:47.244Z,8.4532
2019-03-22T21:31:54.313Z,8.4531
2019-03-22T21:32:01.239Z,8.4531
2019-03-22T21:32:08.250Z,8.4531
2019-03-22T21:32:15.318Z,8.4531
2019-03-22T21:32:22.252Z,8.4531
2019-03-22T21:32:29.237Z,8.4531
2019-03-22T21:32:44.709Z,8.4531
2019-03-22T21:32:49.323Z,8.4531
2019-03-22T21:32:56.253Z,8.4531
2019-03-22T21:33:02.245Z,8.4531
2019-03-22T21:33:08.311Z,8.4531
2019-03-22T21:33:14.306Z,8.4531
2019-03-22T21:33:20.233Z,8.4531
2019-03-22T21:33:26.255Z,8.4531
2019-03-22T21:33:32.234Z,8.4531
2019-03-22T21:33:38.239Z,8.4531
2019-03-22T21:33:44.237Z,8.4531
2019-03-22T21:33:50.359Z,8.4531
2019-03-22T21:33:56.270Z,8.4531
2019-03-22T21:34:02.338Z,8.4531
2019-03-22T21:34:08.361Z,8.4531
2019-03-22T21:34:14.255Z,8.4531
2019-03-22T21:34:20.240Z,8.4531
2019-03-22T21:34:26.276Z,8.4531
2019-03-22T21:34:32.256Z,8.4531
2019-03-22T21:34:38.232Z,8.4531
2019-03-22T21:34:44.429Z,8.4531
2019-03-22T21:34:50.246Z,8.4531
2019-03-22T21:34:56.247Z,8.4531
2019-03-22T21:35:02.335Z,8.4531
2019-03-22T21:35:08.238Z,8.4531
2019-03-22T21:35:22.406Z,8.4530
2019-03-22T21:35:36.698Z,8.4531
2019-03-22T21:35:38.263Z,8.4531
2019-03-22T21:35:44.244Z,8.4531
2019-03-22T21:35:50.245Z,8.4531
2019-03-22T21:35:56.243Z,8.4531
2019-03-22T21:36:02.248Z,8.4531
2019-03-22T21:36:08.267Z,8.4531
2019-03-22T21:36:14.240Z,8.4532
2019-03-22T21:36:20.238Z,8.4532
2019-03-22T21:36:26.286Z,8.4531
2019-03-22T21:36:32.238Z,8.4531
2019-03-22T21:36:38.236Z,8.4531
2019-03-22T21:36:44.243Z,8.4531
2019-03-22T21:36:50.243Z,8.4531
2019-03-22T21:36:56.246Z,8.4532
2019-03-22T21:37:02.252Z,8.4532
2019-03-22T21:37:08.285Z,8.4532
2019-03-22T21:37:14.241Z,8.4531
2019-03-22T21:37:20.242Z,8.4531
2019-03-22T21:37:26.247Z,8.4531
2019-03-22T21:37:32.246Z,8.4532
2019-03-22T21:37:38.251Z,8.4532
2019-03-22T21:37:44.232Z,8.4532
2019-03-22T21:37:50.240Z,8.4533
2019-03-22T21:37:56.238Z,8.4532
2019-03-22T21:38:10.428Z,8.4532
2019-03-22T21:38:15.729Z,8.4531
2019-03-22T21:38:21.252Z,8.4531
2019-03-22T21:38:27.230Z,8.4531
2019-03-22T21:38:33.231Z,8.4531
2019-03-22T21:38:39.242Z,8.4531
2019-03-22T21:38:45.235Z,8.4532
2019-03-22T21:38:51.237Z,8.4532
2019-03-22T21:38:57.246Z,8.4532
2019-03-22T21:39:03.222Z,8.4531
2019-03-22T21:39:09.314Z,8.4531
2019-03-22T21:39:15.239Z,8.4531
2019-03-22T21:39:21.235Z,8.4531
2019-03-22T21:39:27.270Z,8.4531
2019-03-22T21:39:33.257Z,8.4531
2019-03-22T21:39:39.246Z,8.4531
2019-03-22T21:39:45.250Z,8.4531
2019-03-22T21:39:51.233Z,8.4531
2019-03-22T21:39:57.251Z,8.4531
2019-03-22T21:40:03.232Z,8.4531
2019-03-22T21:40:09.240Z,8.4531
2019-03-22T21:40:15.250Z,8.4531
2019-03-22T21:40:22.305Z,8.4532
2019-03-22T21:40:29.242Z,8.4531
2019-03-22T21:40:36.246Z,8.4531
2019-03-22T21:40:42.239Z,8.4531
2019-03-22T21:40:48.246Z,8.4531
2019-03-22T21:40:54.251Z,8.4531
2019-03-22T21:41:00.252Z,8.4532
2019-03-22T21:41:06.243Z,8.4532
2019-03-22T21:41:12.229Z,8.4532
2019-03-22T21:41:18.258Z,8.4532
2019-03-22T21:41:24.246Z,8.4532
2019-03-22T21:41:30.232Z,8.4532
2019-03-22T21:41:36.259Z,8.4532
2019-03-22T21:41:42.238Z,8.4532
2019-03-22T21:41:48.240Z,8.4532
2019-03-22T21:41:54.244Z,8.4532
2019-03-22T21:42:00.242Z,8.4531
2019-03-22T21:42:06.242Z,8.4532
2019-03-22T21:42:12.246Z,8.4532
2019-03-22T21:42:18.242Z,8.4531
2019-03-22T21:42:24.250Z,8.4531
2019-03-22T21:42:30.234Z,8.4532
2019-03-22T21:42:36.250Z,8.4532
2019-03-22T21:42:43.248Z,8.4532
2019-03-22T21:42:50.235Z,8.4532
2019-03-22T21:42:57.243Z,8.4532
2019-03-22T21:43:04.251Z,8.4532
2019-03-22T21:43:11.241Z,8.4532
2019-03-22T21:43:18.236Z,8.4532
2019-03-22T21:43:25.245Z,8.4532
2019-03-22T21:43:32.231Z,8.4532
2019-03-22T22:07:30.259Z,8.4522
2019-03-22T22:07:36.239Z,8.4524
2019-03-22T22:07:42.297Z,8.4528
2019-03-22T22:07:48.237Z,8.4529
2019-03-22T22:07:54.244Z,8.4530
2019-03-22T22:08:00.260Z,8.4531
2019-03-22T22:08:06.242Z,8.4531
2019-03-22T22:08:12.246Z,8.4531
2019-03-22T22:08:18.306Z,8.4531
2019-03-22T22:08:24.246Z,8.4531
2019-03-22T22:08:30.239Z,8.4531
2019-03-22T22:08:58.270Z,8.452845
2019-03-22T22:09:04.248Z,8.453170
2019-03-22T22:09:10.258Z,8.453382
2019-03-22T22:09:16.254Z,8.453502
2019-03-22T22:09:22.230Z,8.453483
2019-03-22T22:09:28.238Z,8.453475
2019-03-22T22:09:34.246Z,8.453471
2019-03-22T22:09:40.259Z,8.453389
2019-03-22T22:09:46.234Z,8.453218
2019-03-22T22:09:52.257Z,8.453204
2019-03-22T22:09:58.255Z,8.453165
2019-03-22T22:10:04.236Z,8.453158
2019-03-22T22:13:49.300Z,8.453198
2019-03-22T22:13:55.273Z,8.453177
2019-03-22T22:14:01.279Z,8.453176
2019-03-22T22:14:07.265Z,8.453138
2019-03-22T22:14:13.272Z,8.453118
2019-03-22T22:14:19.285Z,8.453144
2019-03-22T22:14:25.270Z,8.453156
2019-03-22T22:14:40.432Z,8.453161
2019-03-22T22:14:43.277Z,8.453175
2019-03-22T22:14:49.287Z,8.453213
2019-03-22T22:14:55.273Z,8.453244
2019-03-22T22:15:01.284Z,8.453262
2019-03-22T22:15:07.281Z,8.453271
2019-03-22T22:15:13.276Z,8.453189
2019-03-22T22:15:19.268Z,8.453134
2019-03-22T22:15:25.274Z,8.453107
2019-03-22T22:15:31.335Z,8.453116
2019-03-22T22:15:37.271Z,8.453099
2019-03-22T22:15:43.264Z,8.453111
2019-03-22T22:15:50.307Z,8.453121
2019-03-22T22:15:57.273Z,8.453138
2019-03-22T22:16:04.287Z,8.453118
2019-03-22T22:16:11.278Z,8.453136
2019-03-22T22:16:18.277Z,8.453152
2019-03-22T22:16:25.265Z,8.453143
2019-03-22T22:16:32.279Z,8.453154
2019-03-22T22:16:39.277Z,8.453136
2019-03-22T22:16:46.259Z,8.453089
2019-03-22T22:16:53.275Z,8.453072
2019-03-22T22:17:00.269Z,8.453098
2019-03-22T22:17:07.273Z,8.453107
2019-03-22T22:17:14.260Z,8.453131
2019-03-22T22:17:21.278Z,8.453144
2019-03-22T22:17:28.272Z,8.453165
2019-03-22T22:17:35.261Z,8.453167
2019-03-22T22:17:42.288Z,8.453174
2019-03-22T22:17:49.288Z,8.453170
2019-03-22T22:17:56.354Z,8.453170
2019-03-22T22:18:22.357Z,8.453090
2019-03-22T22:18:29.407Z,8.453115
2019-03-22T22:18:36.347Z,8.453147
2019-03-22T22:18:42.335Z,8.453145
2019-03-22T22:18:48.420Z,8.453137
2019-03-22T22:18:54.347Z,8.453144
2019-03-22T22:19:00.345Z,8.453145
2019-03-22T22:19:06.360Z,8.453156
2019-03-22T22:19:12.425Z,8.453162
2019-03-22T22:19:18.347Z,8.453163
2019-03-22T22:19:24.346Z,8.453157
2019-03-22T22:19:30.428Z,8.453157
2019-03-22T22:19:36.334Z,8.453147
2019-03-22T22:19:42.348Z,8.453144
2019-03-22T22:19:48.361Z,8.453142
2019-03-22T22:19:54.350Z,8.453135
2019-03-22T22:20:28.988Z,8.453097
2019-03-22T22:20:36.268Z,8.453050
2019-03-22T22:20:42.244Z,8.453040
2019-03-22T22:20:48.256Z,8.453094
2019-03-22T22:20:54.254Z,8.453124
2019-03-22T22:21:00.256Z,8.453137
2019-03-22T22:21:06.235Z,8.453157
2019-03-22T22:21:12.246Z,8.453160
2019-03-22T22:21:18.247Z,8.453149
2019-03-22T22:21:24.246Z,8.453134
2019-03-22T22:21:30.253Z,8.453145
2019-03-22T22:21:36.233Z,8.453152
2019-03-22T22:21:42.237Z,8.453161
2019-03-22T22:21:48.242Z,8.453170
2019-03-22T22:21:54.245Z,8.453163
2019-03-22T22:22:00.245Z,8.453154
2019-03-22T22:22:06.246Z,8.453150
2019-03-22T22:22:12.245Z,8.453139
2019-03-22T22:22:18.255Z,8.453128
2019-03-22T22:22:24.231Z,8.453125
2019-03-22T22:22:30.254Z,8.453099
2019-03-22T22:22:36.239Z,8.453083
2019-03-22T22:23:02.373Z,8.453266
2019-03-22T22:23:09.473Z,8.453231
2019-03-22T22:23:15.472Z,8.453195
2019-03-22T22:23:21.519Z,8.453189
2019-03-22T22:23:27.602Z,8.453108
2019-03-22T22:23:33.355Z,8.453049
2019-03-22T22:23:39.343Z,8.453071
2019-03-22T22:23:45.353Z,8.453062
2019-03-22T22:23:51.351Z,8.453087
2019-03-22T22:23:57.394Z,8.453120
2019-03-22T22:24:04.369Z,8.453206
2019-03-22T22:24:10.351Z,8.453207
2019-03-22T22:24:16.378Z,8.453204
2019-03-22T22:24:22.351Z,8.453239
2019-03-22T22:24:29.339Z,8.453263
2019-03-22T22:24:35.355Z,8.453290
2019-03-22T22:24:41.347Z,8.453354
2019-03-22T22:24:47.364Z,8.453376
2019-03-22T22:24:53.351Z,8.453356
2019-03-22T22:24:59.381Z,8.453321
2019-03-22T22:25:06.333Z,8.453282
2019-03-22T22:25:12.376Z,8.453239
2019-03-22T22:25:18.349Z,8.453331
2019-03-22T22:25:24.367Z,8.453385
2019-03-22T22:25:30.355Z,8.453344
2019-03-22T22:25:36.370Z,8.453327
2019-03-22T22:25:42.363Z,8.453347
2019-03-22T22:25:48.354Z,8.453339
2019-03-22T22:25:54.357Z,8.453249
2019-03-22T22:26:00.360Z,8.453185
2019-03-22T22:26:06.354Z,8.453344
2019-03-22T22:26:12.364Z,8.453592
2019-03-22T22:26:18.353Z,8.453597
2019-03-22T22:26:24.337Z,8.453521
2019-03-22T22:26:30.354Z,8.453470
2019-03-22T22:26:36.345Z,8.453820
2019-03-22T22:26:42.375Z,8.454004
2019-03-22T22:26:48.396Z,8.454064
2019-03-22T22:26:54.567Z,8.454051
2019-03-22T22:27:00.629Z,8.453997
2019-03-22T22:27:26.374Z,8.453259
2019-03-22T22:27:33.428Z,8.453356
2019-03-22T22:27:39.354Z,8.453403
2019-03-22T22:28:13.402Z,8.453399
2019-03-22T22:28:25.290Z,8.453595
2019-03-22T22:28:37.331Z,8.453337
2019-03-22T22:28:49.294Z,8.453216
2019-03-22T22:29:01.315Z,8.453176
2019-03-22T22:29:14.313Z,8.453152
2019-03-22T22:29:26.314Z,8.453115
2019-03-22T22:29:38.307Z,8.453134
2019-03-22T22:29:50.304Z,8.453178
2019-03-22T22:30:02.296Z,8.453140
2019-03-22T22:30:14.318Z,8.453119
2019-03-22T22:30:27.310Z,8.453142
2019-03-22T22:30:40.335Z,8.453103
2019-03-22T22:31:14.385Z,8.453122
2019-03-22T22:31:21.362Z,8.453237
2019-03-22T22:31:27.391Z,8.453276
2019-03-22T22:31:33.381Z,8.453269
2019-03-22T22:31:39.377Z,8.453250
2019-03-22T22:31:45.407Z,8.453251
2019-03-22T22:31:51.402Z,8.453213
2019-03-22T22:31:57.415Z,8.453229
2019-03-22T22:32:03.446Z,8.453261
2019-03-22T22:32:09.419Z,8.453364
2019-03-22T22:32:15.390Z,8.453360
2019-03-22T22:32:21.452Z,8.453338
2019-03-22T22:32:27.395Z,8.453303
2019-03-22T22:32:33.390Z,8.453292
2019-03-22T22:32:39.400Z,8.453271
2019-03-22T22:32:45.397Z,8.453279
2019-03-22T22:32:51.394Z,8.453281
2019-03-22T22:32:57.414Z,8.453272
2019-03-22T22:33:03.360Z,8.453258
2019-03-22T22:33:09.388Z,8.453286
2019-03-22T22:33:16.400Z,8.453286
2019-03-22T22:33:23.336Z,8.453289
2019-03-22T22:33:30.353Z,8.453302
2019-03-22T22:33:37.429Z,8.453279
2019-03-22T22:34:00.374Z,8.453151
2019-03-22T22:34:06.371Z,8.453132
2019-03-22T22:34:12.358Z,8.453111
2019-03-22T22:34:18.344Z,8.453156
2019-03-22T22:34:24.366Z,8.453166
2019-03-22T22:34:30.357Z,8.453158
2019-03-22T22:34:36.374Z,8.453155
2019-03-22T22:34:42.368Z,8.453154
2019-03-22T22:34:48.356Z,8.453154
2019-03-22T22:34:54.363Z,8.453150
2019-03-22T22:35:00.623Z,8.453132
2019-03-22T22:35:06.364Z,8.453130
2019-03-22T22:35:44.379Z,8.452876
2019-03-22T22:35:58.873Z,8.452986
2019-03-22T22:36:05.366Z,8.452974
2019-03-22T22:36:11.362Z,8.453042
2019-03-22T22:36:17.440Z,8.453069
2019-03-22T22:36:23.351Z,8.453070
2019-03-22T22:36:29.355Z,8.453055
2019-03-22T22:36:36.359Z,8.453054
2019-03-22T22:36:43.424Z,8.453046
2019-03-22T22:36:50.367Z,8.453075
2019-03-22T22:36:57.364Z,8.453103
2019-03-22T22:37:04.428Z,8.453131
2019-03-22T22:37:11.352Z,8.453132
2019-03-22T22:37:18.372Z,8.453157
2019-03-22T22:37:25.364Z,8.453157
2019-03-22T22:37:32.378Z,8.453171
2019-03-22T22:37:39.352Z,8.453190
2019-03-22T22:37:46.342Z,8.453207
2019-03-22T22:37:53.366Z,8.453218
2019-03-22T22:38:01.371Z,8.453222
2019-03-22T22:38:08.363Z,8.453220
2019-03-22T22:38:15.365Z,8.453220
2019-03-22T22:38:22.360Z,8.453217
2019-03-22T22:38:29.364Z,8.453218
2019-03-22T22:38:36.366Z,8.453216
2019-03-22T22:38:43.369Z,8.453216
2019-03-22T22:38:50.370Z,8.453218
2019-03-22T22:38:57.362Z,8.453210
2019-03-22T22:39:04.370Z,8.453198
2019-03-22T22:39:10.370Z,8.453204
2019-03-22T22:39:16.363Z,8.453192
2019-03-22T22:39:22.360Z,8.453173
2019-03-22T22:39:28.356Z,8.453169
2019-03-22T22:39:34.354Z,8.453168
2019-03-22T22:39:40.392Z,8.453167
2019-03-22T22:39:46.376Z,8.453172
2019-03-22T22:39:52.355Z,8.453176
2019-03-22T22:39:58.372Z,8.453186
2019-03-22T22:40:04.370Z,8.453197
2019-03-22T22:40:10.367Z,8.453197
2019-03-22T22:40:16.357Z,8.453201
2019-03-22T22:40:22.349Z,8.453209
2019-03-22T22:40:28.366Z,8.453209
2019-03-22T22:40:34.363Z,8.453218
2019-03-22T22:40:40.356Z,8.453237
2019-03-22T22:40:46.398Z,8.453227
2019-03-22T22:40:52.360Z,8.453214
2019-03-22T22:40:58.368Z,8.453199
2019-03-22T22:41:04.360Z,8.453181
2019-03-22T22:41:10.368Z,8.453172
2019-03-22T22:41:16.376Z,8.453165
2019-03-22T22:41:22.354Z,8.453171
2019-03-22T22:41:28.359Z,8.453163
2019-03-22T22:41:34.356Z,8.453161
2019-03-22T22:41:40.428Z,8.453157
2019-03-22T22:41:46.397Z,8.453163
2019-03-22T22:41:52.366Z,8.453148
2019-03-22T22:41:58.371Z,8.453151
2019-03-22T22:42:04.354Z,8.453150
2019-03-22T22:42:10.394Z,8.453158
2019-03-22T22:42:16.358Z,8.453166
2019-03-22T22:42:22.344Z,8.453165
2019-03-22T22:42:29.364Z,8.453158
2019-03-22T22:42:36.366Z,8.453156
2019-03-22T22:42:43.358Z,8.453153
2019-03-22T22:42:50.356Z,8.453170
2019-03-22T22:42:57.366Z,8.453189
2019-03-22T22:43:04.360Z,8.453193
2019-03-22T22:43:11.358Z,8.453198
2019-03-22T22:43:18.352Z,8.453223
2019-03-22T22:43:25.382Z,8.453241
2019-03-22T22:43:33.103Z,8.453232
2019-03-22T22:43:40.347Z,8.453221
2019-03-22T22:43:47.360Z,8.453194
2019-03-22T22:43:54.364Z,8.453178
2019-03-22T22:44:01.362Z,8.453174
2019-03-22T22:44:08.366Z,8.453203
2019-03-22T22:44:15.359Z,8.453228
2019-03-22T22:44:22.348Z,8.453224
2019-03-22T22:44:29.372Z,8.453198
2019-03-22T22:44:36.373Z,8.453176
2019-03-22T22:44:43.360Z,8.453168
2019-03-22T22:44:50.354Z,8.453167
2019-03-22T22:44:57.361Z,8.453171
2019-03-22T22:45:03.364Z,8.453170
2019-03-22T22:45:09.352Z,8.453176
2019-03-22T22:45:15.345Z,8.453180
2019-03-22T22:45:21.366Z,8.453184
2019-03-22T22:45:27.363Z,8.453194
2019-03-22T22:45:33.358Z,8.453188
2019-03-22T22:45:39.357Z,8.453178
2019-03-22T22:45:45.339Z,8.453169
2019-03-22T22:45:51.406Z,8.453177
2019-03-22T22:45:57.350Z,8.453177
2019-03-22T22:46:03.351Z,8.453176
2019-03-22T22:46:09.349Z,8.453170
2019-03-22T22:46:15.365Z,8.453153
2019-03-22T22:46:21.367Z,8.453152
2019-03-22T22:46:27.353Z,8.453158
2019-03-22T22:46:33.407Z,8.453136
2019-03-22T22:46:39.367Z,8.453147
2019-03-22T22:46:45.359Z,8.453169
2019-03-22T22:46:51.359Z,8.453192
2019-03-22T22:46:57.357Z,8.453185
2019-03-22T22:47:03.348Z,8.453171
2019-03-22T22:47:10.032Z,8.453162
2019-03-22T22:47:16.366Z,8.453148
2019-03-22T22:47:22.358Z,8.453134
2019-03-22T22:47:28.355Z,8.453136
2019-03-22T22:47:34.355Z,8.453128
2019-03-22T22:47:40.351Z,8.453118
2019-03-22T22:47:46.364Z,8.453116
2019-03-22T22:47:52.352Z,8.453111
2019-03-22T22:47:58.373Z,8.453119
2019-03-22T22:48:04.371Z,8.453129
2019-03-22T22:48:10.362Z,8.453147
2019-03-22T22:48:16.360Z,8.453159
2019-03-22T22:48:22.349Z,8.453166
2019-03-22T22:48:28.374Z,8.453173
2019-03-22T22:48:34.380Z,8.453174
2019-03-22T22:48:40.352Z,8.453176
2019-03-22T22:48:46.365Z,8.453163
2019-03-22T22:48:52.384Z,8.453143
2019-03-22T22:48:58.352Z,8.453118
2019-03-22T22:49:04.377Z,8.453095
2019-03-22T22:49:10.386Z,8.453103
2019-03-22T22:49:16.358Z,8.453115
2019-03-22T22:49:22.361Z,8.453111
2019-03-22T22:49:28.357Z,8.453115
2019-03-22T22:49:34.353Z,8.453118
2019-03-22T22:49:40.368Z,8.453109
2019-03-22T22:49:48.518Z,8.453112
2019-03-22T22:49:54.356Z,8.453142
2019-03-22T22:50:01.469Z,8.453159
2019-03-22T22:50:07.363Z,8.453161
2019-03-22T22:50:13.372Z,8.453156
2019-03-22T22:50:19.358Z,8.453165
2019-03-22T22:50:25.362Z,8.453156
2019-03-22T22:50:31.350Z,8.453163
2019-03-22T22:50:37.344Z,8.453142
2019-03-22T22:50:43.358Z,8.453122
2019-03-22T22:50:49.352Z,8.453124
2019-03-22T22:50:55.396Z,8.453129
2019-03-22T22:51:01.361Z,8.453141
2019-03-22T22:51:07.353Z,8.453168
2019-03-22T22:51:13.379Z,8.453184
2019-03-22T22:51:19.344Z,8.453182
2019-03-22T22:51:25.365Z,8.453194
2019-03-22T22:51:32.367Z,8.453203
2019-03-22T22:51:39.353Z,8.453192
2019-03-22T22:51:46.347Z,8.453214
2019-03-22T22:51:53.369Z,8.453186
2019-03-22T22:52:01.366Z,8.453163
2019-03-22T22:52:08.367Z,8.453118
2019-03-22T22:52:15.372Z,8.453098
2019-03-22T22:52:22.375Z,8.453092
2019-03-22T22:52:29.356Z,8.453084
2019-03-22T22:52:36.345Z,8.453076
2019-03-22T22:52:43.362Z,8.453082
2019-03-22T22:52:50.366Z,8.453102
2019-03-22T22:52:57.380Z,8.453122
2019-03-22T22:53:04.362Z,8.453144
2019-03-22T22:53:11.366Z,8.453173
2019-03-22T22:53:18.361Z,8.453156
2019-03-22T22:53:25.366Z,8.453155
2019-03-22T22:53:32.363Z,8.453167
2019-03-22T22:53:39.364Z,8.453170
2019-03-22T22:53:46.352Z,8.453148
2019-03-22T22:53:53.356Z,8.453155
2019-03-22T22:54:00.376Z,8.453171
2019-03-22T22:54:07.182Z,8.453172
2019-03-22T22:54:13.356Z,8.453158
2019-03-22T22:54:19.349Z,8.453158
2019-03-22T22:54:25.411Z,8.453152
2019-03-22T22:54:31.367Z,8.453159
2019-03-22T22:54:37.356Z,8.453168
2019-03-22T22:54:43.355Z,8.453154
2019-03-22T22:54:49.353Z,8.453135
2019-03-22T22:54:55.357Z,8.453112
2019-03-22T22:55:01.366Z,8.453098
2019-03-22T22:55:07.343Z,8.453094
2019-03-22T22:55:13.358Z,8.453096
2019-03-22T22:55:19.347Z,8.453097
2019-03-22T22:55:25.356Z,8.453106
2019-03-22T22:55:31.347Z,8.453099
2019-03-22T22:55:37.360Z,8.453097
2019-03-22T22:55:43.358Z,8.453095
2019-03-22T22:55:49.364Z,8.453101
2019-03-22T22:55:55.377Z,8.453089
2019-03-22T22:56:01.374Z,8.453088
2019-03-22T22:56:07.378Z,8.453087
2019-03-22T22:56:13.351Z,8.453083
2019-03-22T22:56:19.357Z,8.453088
2019-03-22T22:56:25.378Z,8.453108
2019-03-22T22:56:31.378Z,8.453106
2019-03-22T22:56:38.151Z,8.453101
2019-03-22T22:56:44.352Z,8.453102
2019-03-22T22:56:50.365Z,8.453101
2019-03-22T22:56:56.351Z,8.453110
2019-03-22T22:57:03.416Z,8.453129
2019-03-22T22:57:09.373Z,8.453131
2019-03-22T22:57:15.366Z,8.453145
2019-03-22T22:57:21.353Z,8.453142
2019-03-22T22:57:27.375Z,8.453126
2019-03-22T22:57:33.365Z,8.453101
2019-03-22T22:57:39.357Z,8.453101
2019-03-22T22:57:45.356Z,8.453108
2019-03-22T22:57:51.370Z,8.453110
2019-03-22T22:57:57.365Z,8.453108
2019-03-22T22:58:03.356Z,8.453114
2019-03-22T22:58:09.359Z,8.453113
2019-03-22T22:58:15.361Z,8.453127
2019-03-22T22:58:21.353Z,8.453143
2019-03-22T22:58:27.349Z,8.453149
2019-03-22T22:58:33.378Z,8.453147
2019-03-22T22:58:39.375Z,8.453150
2019-03-22T22:58:45.367Z,8.453160
2019-03-22T22:58:51.367Z,8.453163
2019-03-22T22:58:57.387Z,8.453170
2019-03-22T22:59:03.351Z,8.453170
2019-03-22T22:59:09.385Z,8.453165
2019-03-22T22:59:15.363Z,8.453164
2019-03-22T22:59:21.351Z,8.453168
2019-03-22T22:59:27.345Z,8.453166
2019-03-22T22:59:33.375Z,8.453176
2019-03-22T22:59:39.374Z,8.453187
2019-03-22T22:59:45.365Z,8.453192
2019-03-22T22:59:51.363Z,8.453195
2019-03-22T22:59:57.372Z,8.453203
2019-03-22T23:00:03.382Z,8.453214
2019-03-22T23:00:09.356Z,8.453222
2019-03-22T23:00:15.369Z,8.453222
2019-03-22T23:00:21.357Z,8.453209
2019-03-22T23:00:27.353Z,8.453195
2019-03-22T23:00:33.354Z,8.453179
2019-03-22T23:00:39.347Z,8.453182
2019-03-22T23:00:45.366Z,8.453180
2019-03-22T23:00:51.366Z,8.453182
2019-03-22T23:00:57.684Z,8.453213
2019-03-22T23:01:03.350Z,8.453214
2019-03-22T23:01:09.344Z,8.453222
2019-03-22T23:01:15.372Z,8.453233
2019-03-22T23:01:21.366Z,8.453245
2019-03-22T23:01:27.350Z,8.453258
2019-03-22T23:01:33.353Z,8.453251
2019-03-22T23:01:39.346Z,8.453237
2019-03-22T23:01:45.376Z,8.453235
2019-03-22T23:01:51.349Z,8.453238
2019-03-22T23:01:57.357Z,8.453234
2019-03-22T23:02:03.392Z,8.453238
2019-03-22T23:02:09.357Z,8.453216
2019-03-22T23:02:15.356Z,8.453201
2019-03-22T23:02:21.353Z,8.453204
2019-03-22T23:02:27.341Z,8.453188
2019-03-22T23:02:33.354Z,8.453183
2019-03-22T23:02:39.343Z,8.453181
2019-03-22T23:02:45.361Z,8.453169
2019-03-22T23:02:51.355Z,8.453191
2019-03-22T23:02:57.355Z,8.453194
2019-03-22T23:03:03.365Z,8.453225
2019-03-22T23:03:09.367Z,8.453229
2019-03-22T23:03:15.375Z,8.453241
2019-03-22T23:03:21.360Z,8.453221
2019-03-22T23:03:27.352Z,8.453205
2019-03-22T23:03:33.351Z,8.453199
2019-03-22T23:03:39.375Z,8.453165
2019-03-22T23:03:45.346Z,8.453155
2019-03-22T23:03:51.370Z,8.453166
2019-03-22T23:03:57.365Z,8.453151
2019-03-22T23:04:03.352Z,8.453129
2019-03-22T23:04:09.347Z,8.453143
2019-03-22T23:04:15.361Z,8.453133
2019-03-22T23:04:21.353Z,8.453127
2019-03-22T23:04:27.344Z,8.453133
2019-03-22T23:04:33.364Z,8.453145
2019-03-22T23:04:39.366Z,8.453148
2019-03-22T23:04:45.357Z,8.453145
2019-03-22T23:04:51.357Z,8.453126
2019-03-22T23:04:57.358Z,8.453110
2019-03-22T23:05:03.354Z,8.453100
2019-03-22T23:05:09.361Z,8.453100
2019-03-22T23:05:15.365Z,8.453115
2019-03-22T23:05:21.368Z,8.453141
2019-03-22T23:05:27.378Z,8.453149
2019-03-22T23:05:33.355Z,8.453155
2019-03-22T23:05:39.353Z,8.453147
2019-03-22T23:05:45.365Z,8.453143
2019-03-22T23:05:51.367Z,8.453144
2019-03-22T23:05:57.363Z,8.453141
2019-03-22T23:06:09.909Z,8.453157
2019-03-22T23:06:15.358Z,8.453192
2019-03-22T23:06:21.356Z,8.453192
2019-03-22T23:06:27.356Z,8.453176
2019-03-22T23:06:33.352Z,8.453176
2019-03-22T23:06:39.392Z,8.453184
2019-03-22T23:06:46.390Z,8.453185
2019-03-22T23:06:53.509Z,8.453172
2019-03-22T23:07:00.399Z,8.453168
2019-03-22T23:07:07.379Z,8.453166
2019-03-22T23:07:14.387Z,8.453158
2019-03-22T23:07:21.367Z,8.453172
2019-03-22T23:07:28.362Z,8.453165
2019-03-22T23:07:35.367Z,8.453134
2019-03-22T23:07:42.387Z,8.453130
2019-03-22T23:07:49.364Z,8.453130
2019-03-22T23:07:56.351Z,8.453153
2019-03-22T23:08:03.385Z,8.453163
2019-03-22T23:08:10.360Z,8.453173
2019-03-22T23:08:17.367Z,8.453168
2019-03-22T23:08:24.369Z,8.453187
2019-03-22T23:08:31.377Z,8.453188
2019-03-22T23:08:38.348Z,8.453191
2019-03-22T23:08:45.383Z,8.453183
2019-03-22T23:08:52.358Z,8.453160
2019-03-22T23:08:59.368Z,8.453144
2019-03-22T23:09:06.365Z,8.453156
2019-03-22T23:09:13.401Z,8.453172
2019-03-22T23:09:20.378Z,8.453169
2019-03-22T23:09:27.368Z,8.453165
2019-03-22T23:09:34.377Z,8.453163
2019-03-22T23:09:41.348Z,8.453164
2019-03-22T23:09:48.377Z,8.453175
2019-03-22T23:09:55.353Z,8.453184
2019-03-22T23:10:02.374Z,8.453180
2019-03-22T23:10:09.505Z,8.453192
2019-03-22T23:10:16.424Z,8.453184
2019-03-22T23:10:23.441Z,8.453183
2019-03-22T23:10:30.363Z,8.453175
2019-03-22T23:10:37.358Z,8.453181
2019-03-22T23:10:44.436Z,8.453166
2019-03-22T23:10:51.370Z,8.453155
2019-03-22T23:10:58.367Z,8.453142
2019-03-22T23:11:05.392Z,8.453162
2019-03-22T23:11:12.371Z,8.453159
2019-03-22T23:11:19.369Z,8.453163
2019-03-22T23:11:26.372Z,8.453157
2019-03-22T23:11:33.354Z,8.453145
2019-03-22T23:11:40.370Z,8.453155
2019-03-22T23:11:47.374Z,8.453140
2019-03-22T23:11:53.357Z,8.453158
2019-03-22T23:11:59.365Z,8.453146